Altus, Oklahoma
Current Conditions -  °F | °C
As of 9:33 AM on Thursday 23 Oct 2014 (Local Time) from KLTS Reporting Station
Haze Haze  
Wind Chill: 17°   Ceiling: Unl
Heat Index: 17°   Visibility: 3mi
Dew Point: 17°   Wind: 6mph
Humidity: 100%   Direction: 150°SSE
Pressure: 30.13"   Gusts: NA
Location:  34.64°N, 99.33°W
Report Text: KLTS 231433Z 15005KT 3SM BR CLR 17/17 A3013 RMK AO2A
Loading
Personal Weather Stations






























Interactive Weather Map
Tropical Storm Tracking
New forecast layout! Learn more

10-Day Weather Forecast

Advertisements
Track Severe Weather on mobile